Time;durP1;ratioP1;P1;durP2;ratioP2;P2;SDS_P1;SDS_P2;PMS_P1;PMS_P2;Temp;Humidity;BMP_temperature;BMP_pressure;BME280_temperature;BME280_humidity;BME280_pressure;Samples;Min_cycle;Max_cycle;Signal;HPM_P1;HPM_P2
2022/05/09 00:00:16;;;;;;;11.45;5.20;;;14.40;63.30;;;;;;5076078;28;20498;-90
2022/05/09 00:02:43;;;;;;;10.25;5.50;;;14.40;63.30;;;;;;5077220;28;20032;-91
2022/05/09 00:05:13;;;;;;;7.10;4.90;;;14.40;63.60;;;;;;5076936;28;20107;-91
2022/05/09 00:07:39;;;;;;;8.30;5.20;;;14.40;64.70;;;;;;5077337;28;20100;-90
2022/05/09 00:10:05;;;;;;;9.73;5.20;;;14.30;63.90;;;;;;5076874;28;20024;-91
2022/05/09 00:12:32;;;;;;;14.32;5.50;;;14.40;63.90;;;;;;5075775;28;20028;-88
2022/05/09 00:14:58;;;;;;;8.75;4.95;;;14.40;66.10;;;;;;5076803;28;20017;-88
2022/05/09 00:17:23;;;;;;;9.45;4.97;;;14.40;70.10;;;;;;5075709;28;20036;-87
2022/05/09 00:19:49;;;;;;;10.18;4.50;;;14.40;78.80;;;;;;5076766;28;20386;-88
2022/05/09 00:22:15;;;;;;;10.57;5.03;;;14.60;84.40;;;;;;5076596;28;20033;-84
2022/05/09 00:24:41;;;;;;;7.95;5.22;;;14.60;88.40;;;;;;5075090;28;20493;-84
2022/05/09 00:27:06;;;;;;;7.55;5.25;;;14.50;90.30;;;;;;5075067;28;20475;-86
2022/05/09 00:29:32;;;;;;;8.48;4.30;;;14.30;91.80;;;;;;5075403;28;20020;-87
2022/05/09 00:31:58;;;;;;;5.28;4.63;;;14.20;92.10;;;;;;5075941;28;20016;-87
2022/05/09 00:34:25;;;;;;;6.88;4.70;;;14.20;93.30;;;;;;5076495;28;20021;-86
2022/05/09 00:36:55;;;;;;;6.97;4.55;;;14.10;93.40;;;;;;5076400;28;20063;-87
2022/05/09 00:39:22;;;;;;;13.82;5.30;;;14.10;94.10;;;;;;5076462;28;20016;-87
2022/05/09 00:41:48;;;;;;;10.23;5.00;;;14.20;95.50;;;;;;5076332;28;20028;-87
2022/05/09 00:44:17;;;;;;;7.28;5.35;;;14.10;95.80;;;;;;5075925;28;20058;-87
2022/05/09 00:46:49;;;;;;;6.95;5.07;;;14.10;96.50;;;;;;5076332;28;20017;-88
2022/05/09 00:49:43;;;;;;;8.40;5.70;;;14.10;96.90;;;;;;5075026;28;20378;-86
2022/05/09 00:52:18;;;;;;;7.70;5.38;;;14.00;97.30;;;;;;5075284;28;20382;-87
2022/05/09 00:54:49;;;;;;;7.80;5.25;;;13.90;97.00;;;;;;5075058;28;20029;-87
2022/05/09 00:57:23;;;;;;;10.57;6.18;;;13.90;96.70;;;;;;5075135;28;20048;-87
2022/05/09 00:59:53;;;;;;;13.20;6.40;;;13.80;96.50;;;;;;5075990;28;20104;-88
2022/05/09 01:02:20;;;;;;;7.45;5.68;;;13.70;95.70;;;;;;5075205;28;20466;-88
2022/05/09 01:04:58;;;;;;;7.78;5.80;;;13.50;95.60;;;;;;5075735;28;20076;-87
2022/05/09 01:07:24;;;;;;;9.88;5.75;;;13.40;95.70;;;;;;5074820;28;20021;-88
2022/05/09 01:09:51;;;;;;;11.50;6.07;;;13.30;95.80;;;;;;5075478;28;20197;-87
2022/05/09 01:12:32;;;;;;;8.73;5.90;;;13.20;96.10;;;;;;5075730;28;20022;-88
2022/05/09 01:15:01;;;;;;;10.75;6.18;;;13.10;96.40;;;;;;5074632;28;20028;-87
2022/05/09 01:17:28;;;;;;;12.50;5.85;;;13.00;96.70;;;;;;5074456;28;20071;-87
2022/05/09 01:19:58;;;;;;;14.30;6.90;;;13.00;97.40;;;;;;5075611;28;20029;-88
2022/05/09 01:22:31;;;;;;;7.85;6.10;;;12.90;97.60;;;;;;5075597;28;20024;-88
2022/05/09 01:25:03;;;;;;;13.32;6.53;;;12.80;97.60;;;;;;5075486;28;20028;-88
2022/05/09 01:27:36;;;;;;;8.20;6.35;;;12.80;97.80;;;;;;5074428;28;20107;-88
2022/05/09 01:30:09;;;;;;;8.73;5.72;;;12.80;97.40;;;;;;5074444;28;20021;-88
2022/05/09 01:33:20;;;;;;;9.10;5.90;;;12.70;96.90;;;;;;5074115;28;20016;-88
2022/05/09 01:36:01;;;;;;;10.05;5.47;;;12.70;96.50;;;;;;5017185;28;20026;-88
2022/05/09 01:38:39;;;;;;;12.15;6.22;;;12.70;96.40;;;;;;5071449;28;20036;-88
2022/05/09 01:41:05;;;;;;;8.68;6.07;;;12.70;95.80;;;;;;5075153;28;20028;-88
2022/05/09 01:43:35;;;;;;;11.80;5.57;;;12.70;95.50;;;;;;5075352;28;20040;-87
2022/05/09 01:46:05;;;;;;;;;;;12.70;95.70;;;;;;5074049;28;20541;-87
2022/05/09 01:51:16;;;;;;;11.30;5.00;;;12.60;95.30;;;;;;5075489;28;20523;-87
2022/05/09 01:53:49;;;;;;;9.70;5.22;;;12.50;95.00;;;;;;5073400;28;20023;-88
2022/05/09 01:56:15;;;;;;;6.13;4.80;;;12.50;94.60;;;;;;5073698;28;20029;-87
2022/05/09 01:58:41;;;;;;;9.45;5.55;;;12.40;94.40;;;;;;5075040;28;20052;-87
2022/05/09 02:01:08;;;;;;;10.25;5.60;;;12.40;94.00;;;;;;5073785;28;20090;-87
2022/05/09 02:03:34;;;;;;;7.70;4.95;;;12.30;94.00;;;;;;5075222;28;20484;-87
2022/05/09 02:06:00;;;;;;;8.10;5.15;;;12.30;94.30;;;;;;5073466;28;20029;-88
2022/05/09 02:08:26;;;;;;;10.57;5.55;;;12.20;94.50;;;;;;5073702;28;20024;-87
2022/05/09 02:10:53;;;;;;;10.18;5.50;;;12.20;94.90;;;;;;5073496;28;20024;-87
2022/05/09 02:13:20;;;;;;;9.90;5.43;;;12.10;95.00;;;;;;5073500;28;20540;-87
2022/05/09 02:15:46;;;;;;;8.88;5.45;;;12.00;95.70;;;;;;5074507;28;20024;-87
2022/05/09 02:18:11;;;;;;;9.85;5.45;;;12.00;95.80;;;;;;5075058;28;20028;-87
2022/05/09 02:20:37;;;;;;;8.25;5.10;;;11.90;96.00;;;;;;5074622;28;20028;-87
2022/05/09 02:23:04;;;;;;;9.48;5.30;;;11.90;95.90;;;;;;5074386;28;20124;-87
2022/05/09 02:25:30;;;;;;;9.20;5.65;;;11.80;96.60;;;;;;5073324;28;20081;-87
2022/05/09 02:28:00;;;;;;;7.47;5.65;;;11.80;96.10;;;;;;5073058;28;20029;-87
2022/05/09 02:30:26;;;;;;;6.97;4.95;;;11.70;96.30;;;;;;5073227;28;20119;-87
2022/05/09 02:32:53;;;;;;;9.00;4.85;;;11.60;96.30;;;;;;5074497;28;20045;-88
2022/05/09 02:35:20;;;;;;;7.93;5.00;;;11.60;96.10;;;;;;5073275;28;20028;-88
2022/05/09 02:37:48;;;;;;;8.65;5.75;;;11.60;96.10;;;;;;5074310;28;20360;-87
2022/05/09 02:40:14;;;;;;;8.35;5.20;;;11.60;96.10;;;;;;5072991;28;20086;-87
2022/05/09 02:42:40;;;;;;;11.35;5.53;;;11.60;96.10;;;;;;5074181;28;20023;-87
2022/05/09 02:45:07;;;;;;;6.00;5.15;;;11.50;96.00;;;;;;5072839;28;20506;-89
2022/05/09 02:47:32;;;;;;;8.43;4.97;;;11.50;95.80;;;;;;5073388;28;20024;-89
2022/05/09 02:49:58;;;;;;;9.23;5.25;;;11.50;95.70;;;;;;5074439;28;20108;-89
2022/05/09 02:52:24;;;;;;;9.80;5.50;;;11.50;95.70;;;;;;5074273;28;20096;-89
2022/05/09 02:54:50;;;;;;;7.80;5.13;;;11.50;95.70;;;;;;5074193;28;20464;-88
2022/05/09 02:57:15;;;;;;;7.78;4.97;;;11.50;95.90;;;;;;5074407;28;20035;-88
2022/05/09 02:59:41;;;;;;;8.30;5.40;;;11.50;95.60;;;;;;5074425;28;20027;-88
2022/05/09 03:02:08;;;;;;;9.98;5.13;;;11.50;95.20;;;;;;5072978;28;20471;-89
2022/05/09 03:04:41;;;;;;;10.57;5.97;;;11.60;94.90;;;;;;5073058;28;20141;-88
2022/05/09 03:07:11;;;;;;;11.88;5.57;;;11.60;94.60;;;;;;5076746;28;20036;-88
2022/05/09 03:09:38;;;;;;;10.27;5.63;;;11.60;94.70;;;;;;5077116;28;20484;-90
2022/05/09 03:12:05;;;;;;;11.02;5.57;;;11.60;94.90;;;;;;5076673;28;20020;-90
2022/05/09 03:14:38;;;;;;;8.85;5.35;;;11.70;94.80;;;;;;5076856;28;20078;-89
2022/05/09 03:17:05;;;;;;;7.80;5.38;;;11.70;94.80;;;;;;5078050;28;20029;-88
2022/05/09 03:19:31;;;;;;;8.80;5.35;;;11.70;94.70;;;;;;5076716;28;20032;-88
2022/05/09 03:21:57;;;;;;;13.93;6.03;;;11.80;94.20;;;;;;5076795;28;20118;-88
2022/05/09 03:24:23;;;;;;;14.60;5.65;;;11.80;93.60;;;;;;5076342;28;20078;-87
2022/05/09 03:26:49;;;;;;;9.63;6.20;;;11.90;93.70;;;;;;5076488;28;20435;-87
2022/05/09 03:29:18;;;;;;;11.30;6.32;;;12.00;93.00;;;;;;5077615;28;20095;-87
2022/05/09 03:31:46;;;;;;;11.20;5.97;;;12.10;93.00;;;;;;5076688;28;20027;-87
2022/05/09 03:34:12;;;;;;;11.32;6.30;;;12.20;93.00;;;;;;5077492;28;20086;-88
2022/05/09 03:36:38;;;;;;;12.43;7.50;;;12.30;92.70;;;;;;5076482;28;20387;-87
2022/05/09 03:39:04;;;;;;;11.77;6.85;;;12.40;93.30;;;;;;5076464;28;20024;-87
2022/05/09 03:41:30;;;;;;;11.23;7.25;;;12.50;93.00;;;;;;5077497;28;20023;-88
2022/05/09 03:43:56;;;;;;;10.88;7.20;;;12.70;93.40;;;;;;5076076;28;20021;-86
2022/05/09 03:46:22;;;;;;;11.20;6.50;;;12.90;93.80;;;;;;5076050;28;20031;-85
2022/05/09 03:48:48;;;;;;;9.10;7.35;;;13.10;94.30;;;;;;5075958;28;20024;-87
2022/05/09 03:51:13;;;;;;;13.82;8.02;;;13.40;94.80;;;;;;5077205;28;20043;-87
2022/05/09 03:53:39;;;;;;;11.00;8.15;;;13.60;95.10;;;;;;5076213;28;20379;-88
2022/05/09 03:56:07;;;;;;;11.70;8.23;;;13.80;95.00;;;;;;5077179;28;20036;-88
2022/05/09 03:58:33;;;;;;;13.68;7.95;;;14.00;95.10;;;;;;5075892;28;20024;-87
2022/05/09 04:00:59;;;;;;;10.98;7.32;;;14.20;95.20;;;;;;5075905;28;20035;-88
2022/05/09 04:03:25;;;;;;;10.95;7.60;;;14.30;95.10;;;;;;5075879;28;20028;-90
2022/05/09 04:05:52;;;;;;;11.85;7.57;;;14.40;95.10;;;;;;5075755;28;20043;-90
2022/05/09 04:08:20;;;;;;;11.18;7.57;;;14.50;95.00;;;;;;5077146;28;20020;-89
2022/05/09 04:10:48;;;;;;;10.60;7.80;;;14.60;95.10;;;;;;5077205;28;20025;-90
2022/05/09 04:13:15;;;;;;;13.77;8.35;;;14.70;94.90;;;;;;5075863;28;20051;-91
2022/05/09 04:18:39;;;;;;;10.68;7.88;;;14.70;95.00;;;;;;5077014;28;20524;-92
2022/05/09 04:21:06;;;;;;;12.30;7.80;;;14.80;94.90;;;;;;5075709;28;20032;-89
2022/05/09 16:11:41;;;;;;;17.27;7.70;;;16.80;45.90;;;;;;5112406;28;20027;-90
2022/05/09 16:14:08;;;;;;;12.80;7.22;;;16.80;45.80;;;;;;5110695;28;20031;-88
2022/05/09 16:16:40;;;;;;;11.70;7.20;;;16.90;45.70;;;;;;5110922;28;20027;-88
2022/05/09 16:19:07;;;;;;;8.63;6.25;;;16.80;45.80;;;;;;5110762;28;20020;-89
2022/05/09 16:21:32;;;;;;;7.85;5.75;;;16.90;45.60;;;;;;5110698;28;20051;-91
2022/05/09 16:23:58;;;;;;;6.90;4.75;;;16.90;45.90;;;;;;5111622;28;20057;-89
2022/05/09 16:26:30;;;;;;;10.43;5.50;;;16.80;46.00;;;;;;5110448;28;20470;-88
2022/05/09 16:29:04;;;;;;;10.93;5.93;;;16.90;46.20;;;;;;5110611;28;20066;-89
2022/05/09 16:31:30;;;;;;;8.75;5.75;;;16.80;46.10;;;;;;5110603;28;20472;-88
2022/05/09 16:34:00;;;;;;;13.68;5.70;;;16.80;45.60;;;;;;5110413;28;20119;-88
2022/05/09 16:36:25;;;;;;;12.43;5.50;;;16.80;45.80;;;;;;5111748;28;20023;-88
2022/05/09 16:38:51;;;;;;;8.75;6.00;;;16.70;46.30;;;;;;5110381;28;20028;-89
2022/05/09 16:41:17;;;;;;;10.57;5.90;;;16.70;46.70;;;;;;5110531;28;20049;-90
2022/05/09 16:43:43;;;;;;;11.88;6.47;;;16.60;46.70;;;;;;5110562;28;20028;-90
2022/05/09 16:46:18;;;;;;;16.00;5.95;;;16.60;46.80;;;;;;5110407;28;20016;-90
2022/05/09 16:48:44;;;;;;;12.75;6.32;;;16.60;47.00;;;;;;5110361;28;20024;-89
2022/05/09 16:51:11;;;;;;;10.50;6.35;;;16.50;47.30;;;;;;5110924;28;20470;-89
2022/05/09 16:53:37;;;;;;;10.13;5.90;;;16.40;47.00;;;;;;5110193;28;20474;-89
2022/05/09 19:22:46;;;;;;;4.60;2.30;;;13.30;55.00;;;;;;5111355;27;20418;-88
2022/05/09 19:25:12;;;;;;;5.45;2.25;;;13.20;55.80;;;;;;5111185;28;20034;-87
2022/05/09 19:27:40;;;;;;;4.53;2.10;;;13.20;56.10;;;;;;5111268;28;20043;-90
2022/05/09 19:30:07;;;;;;;6.07;2.40;;;13.10;56.30;;;;;;5110090;28;20028;-89
2022/05/09 19:32:39;;;;;;;3.72;2.17;;;13.20;56.00;;;;;;5109554;28;20028;-89
2022/05/09 19:35:09;;;;;;;3.95;2.28;;;13.20;56.20;;;;;;5111192;28;20030;-88
2022/05/09 19:37:35;;;;;;;2.67;2.10;;;13.20;56.20;;;;;;5109819;28;20046;-87
2022/05/09 19:40:00;;;;;;;3.17;2.10;;;13.20;56.20;;;;;;5109795;28;20031;-86
2022/05/09 19:42:26;;;;;;;8.60;2.17;;;13.20;55.90;;;;;;5110734;28;20063;-87
2022/05/09 19:44:56;;;;;;;3.72;2.30;;;13.30;55.40;;;;;;5109646;28;20107;-86
2022/05/09 19:47:32;;;;;;;4.43;2.00;;;13.20;55.30;;;;;;5110206;28;20019;-86
2022/05/09 19:50:02;;;;;;;4.82;2.33;;;13.20;55.40;;;;;;5109297;28;20020;-86
2022/05/09 19:55:14;;;;;;;4.45;2.30;;;13.20;55.60;;;;;;5110368;28;20027;-86
2022/05/09 19:57:41;;;;;;;3.45;2.20;;;13.10;55.60;;;;;;5109334;28;20032;-88
2022/05/09 20:00:10;;;;;;;4.97;2.20;;;13.10;55.60;;;;;;5108947;28;20393;-88
2022/05/09 20:02:36;;;;;;;5.03;2.10;;;13.10;55.80;;;;;;5110424;28;20047;-88
2022/05/09 20:05:02;;;;;;;6.82;2.50;;;13.10;55.80;;;;;;5110547;28;20023;-88
2022/05/09 20:07:28;;;;;;;4.70;2.15;;;13.10;55.30;;;;;;5110403;28;20017;-88
2022/05/09 20:09:54;;;;;;;5.10;2.13;;;13.00;55.10;;;;;;5109460;28;20032;-88
2022/05/09 20:12:24;;;;;;;6.05;2.50;;;13.00;55.00;;;;;;5109541;28;20060;-89
2022/05/09 20:14:50;;;;;;;4.13;2.60;;;13.00;54.70;;;;;;5109340;28;20478;-88
2022/05/09 20:17:16;;;;;;;5.03;2.83;;;13.00;54.90;;;;;;5109276;28;20028;-88
2022/05/09 20:19:41;;;;;;;5.28;2.20;;;13.00;54.30;;;;;;5109308;28;20024;-89
2022/05/09 20:22:08;;;;;;;5.28;2.38;;;13.00;54.10;;;;;;5108904;28;20113;-86
2022/05/09 20:24:34;;;;;;;8.07;2.70;;;13.00;53.90;;;;;;5109065;28;20427;-87
2022/05/09 20:29:58;;;;;;;5.65;2.00;;;13.00;53.60;;;;;;5110518;28;20066;-91
2022/05/09 20:32:35;;;;;;;4.53;2.28;;;13.00;53.70;;;;;;5105391;28;20031;-89
2022/05/09 20:35:04;;;;;;;3.38;1.95;;;13.00;54.10;;;;;;5095541;28;20024;-90
2022/05/09 20:37:49;;;;;;;3.47;2.05;;;12.90;54.50;;;;;;5095324;28;20458;-88
2022/05/09 20:40:36;;;;;;;6.20;2.10;;;12.80;54.30;;;;;;5095220;28;20053;-87
2022/05/09 20:43:08;;;;;;;5.85;2.20;;;12.80;54.40;;;;;;5095497;28;20027;-90
2022/05/09 20:45:34;;;;;;;4.05;2.15;;;12.70;54.40;;;;;;5095410;28;20028;-89
2022/05/09 20:48:00;;;;;;;5.13;2.33;;;12.70;54.50;;;;;;5095151;28;20356;-89
2022/05/09 20:50:26;;;;;;;3.10;1.92;;;12.70;54.80;;;;;;5095081;28;20077;-88
2022/05/09 20:52:53;;;;;;;2.83;2.03;;;12.70;54.90;;;;;;5094868;28;20051;-88
2022/05/09 20:55:21;;;;;;;2.70;1.90;;;12.70;54.60;;;;;;5094813;28;20031;-89
2022/05/09 20:57:48;;;;;;;4.40;2.10;;;12.60;54.90;;;;;;5097849;28;20028;-89
2022/05/09 21:00:26;;;;;;;6.25;2.13;;;12.60;55.10;;;;;;5094846;28;20016;-88
2022/05/09 21:02:52;;;;;;;3.65;2.53;;;12.60;55.30;;;;;;5095452;28;20037;-88
2022/05/09 21:05:19;;;;;;;3.80;2.17;;;12.50;55.30;;;;;;5095436;28;20020;-88
2022/05/09 21:07:45;;;;;;;4.90;2.40;;;12.40;55.00;;;;;;5093803;28;20031;-88
2022/05/09 21:10:13;;;;;;;5.32;2.08;;;12.40;55.10;;;;;;5094907;28;20523;-88
2022/05/09 21:12:39;;;;;;;7.40;2.35;;;12.40;55.20;;;;;;5093942;28;20028;-86
2022/05/09 21:15:05;;;;;;;5.97;2.28;;;12.30;54.90;;;;;;5094787;28;20028;-89
2022/05/09 21:17:31;;;;;;;3.10;2.15;;;12.30;54.60;;;;;;5094420;28;20031;-88
2022/05/09 21:19:58;;;;;;;5.13;2.45;;;12.30;54.80;;;;;;5094390;28;20157;-88
2022/05/09 21:22:38;;;;;;;4.82;1.90;;;12.30;55.10;;;;;;5094003;28;20048;-87
2022/05/09 21:25:18;;;;;;;2.33;2.00;;;12.30;55.00;;;;;;5094082;28;20026;-88
2022/05/09 21:27:44;;;;;;;5.95;2.40;;;12.20;54.80;;;;;;5094292;28;20032;-88
2022/05/09 21:30:10;;;;;;;4.50;2.10;;;12.20;55.10;;;;;;5095090;28;20067;-88
2022/05/09 21:32:36;;;;;;;3.05;2.30;;;12.10;55.40;;;;;;5093530;28;20325;-88
2022/05/09 21:35:02;;;;;;;3.92;2.53;;;12.20;55.30;;;;;;5094039;28;20462;-88
2022/05/09 21:37:28;;;;;;;3.72;2.50;;;12.10;54.80;;;;;;5093156;28;20026;-90
2022/05/09 21:42:42;;;;;;;4.55;2.20;;;12.10;54.40;;;;;;5095513;28;20035;-90
2022/05/09 21:45:09;;;;;;;4.10;2.30;;;12.10;54.10;;;;;;5092772;28;20039;-90
2022/05/09 21:47:35;;;;;;;5.00;2.60;;;12.10;53.80;;;;;;5094822;28;20016;-89
2022/05/09 21:50:00;;;;;;;9.93;2.88;;;12.00;54.20;;;;;;5094141;28;20020;-89
2022/05/09 21:52:32;;;;;;;2.20;2.00;;;12.00;54.50;;;;;;5093704;28;20081;-89
2022/05/09 21:54:59;;;;;;;4.07;2.53;;;12.10;54.60;;;;;;5093779;28;20028;-90
2022/05/09 21:57:25;;;;;;;4.82;2.85;;;12.00;54.90;;;;;;5093913;28;20077;-91
2022/05/09 21:59:50;;;;;;;7.22;2.88;;;12.00;55.10;;;;;;5093947;28;20024;-90
2022/05/09 22:02:16;;;;;;;6.68;3.10;;;11.90;55.50;;;;;;5093752;28;20028;-91
2022/05/09 22:04:43;;;;;;;6.15;3.13;;;11.90;55.70;;;;;;5093303;28;20439;-91
2022/05/09 22:07:12;;;;;;;8.90;4.13;;;11.80;55.90;;;;;;5093608;28;20020;-90
2022/05/09 22:09:57;;;;;;;8.55;3.78;;;11.80;55.80;;;;;;5093443;28;20506;-89
2022/05/09 22:12:23;;;;;;;5.55;2.83;;;11.70;56.20;;;;;;5092687;28;20032;-89
2022/05/09 22:14:50;;;;;;;6.35;2.70;;;11.70;56.60;;;;;;5093284;28;20199;-91
2022/05/09 22:17:16;;;;;;;7.28;2.95;;;11.60;56.90;;;;;;5093325;28;20125;-89
2022/05/09 22:19:42;;;;;;;11.88;2.92;;;11.60;56.80;;;;;;5094677;28;20024;-89
2022/05/09 22:22:10;;;;;;;4.10;2.30;;;11.50;57.40;;;;;;5092842;28;20044;-89
2022/05/09 22:24:37;;;;;;;11.13;3.05;;;11.50;57.40;;;;;;5092971;28;20031;-90
2022/05/09 22:27:04;;;;;;;4.55;2.30;;;11.40;57.30;;;;;;5094211;28;20016;-89
2022/05/09 22:29:33;;;;;;;7.15;3.13;;;11.40;57.40;;;;;;5093618;28;20024;-91
2022/05/09 22:32:00;;;;;;;4.63;2.55;;;11.40;57.40;;;;;;5094686;28;20016;-89
2022/05/09 22:34:31;;;;;;;3.38;2.53;;;11.40;58.20;;;;;;5094682;28;20070;-90
2022/05/09 22:37:01;;;;;;;6.80;2.50;;;11.30;58.00;;;;;;5094588;28;20087;-89
2022/05/09 22:39:30;;;;;;;6.75;2.78;;;11.30;58.00;;;;;;5094250;28;20110;-89
2022/05/09 22:41:57;;;;;;;7.60;3.05;;;11.20;57.80;;;;;;5094451;28;20024;-89
2022/05/09 22:44:23;;;;;;;4.65;2.70;;;11.20;57.90;;;;;;5093698;28;20463;-89
2022/05/09 22:46:50;;;;;;;3.80;2.63;;;11.20;58.70;;;;;;5093846;28;20020;-89
2022/05/09 22:49:23;;;;;;;6.22;2.47;;;11.20;58.40;;;;;;5093799;28;20022;-89
2022/05/09 22:51:49;;;;;;;3.28;2.30;;;11.10;58.60;;;;;;5095246;28;20035;-90
2022/05/09 22:54:15;;;;;;;3.47;2.38;;;11.10;58.60;;;;;;5093431;28;20025;-90
2022/05/09 22:56:41;;;;;;;3.63;2.55;;;11.10;59.10;;;;;;5093327;28;20077;-90
2022/05/09 22:59:07;;;;;;;4.32;2.53;;;11.00;59.30;;;;;;5093750;28;20028;-91
2022/05/09 23:01:39;;;;;;;3.45;2.33;;;11.00;59.50;;;;;;5093547;28;20024;-90
2022/05/09 23:04:08;;;;;;;5.63;2.55;;;11.00;59.50;;;;;;5093577;28;20111;-90
2022/05/09 23:06:34;;;;;;;3.45;2.40;;;11.00;59.40;;;;;;5093479;28;20024;-90
2022/05/09 23:09:03;;;;;;;4.32;2.70;;;11.00;59.60;;;;;;5093512;28;20024;-90
2022/05/09 23:11:30;;;;;;;3.75;2.50;;;10.90;59.40;;;;;;5093441;28;20028;-89
2022/05/09 23:13:56;;;;;;;4.28;2.35;;;10.90;59.50;;;;;;5093457;28;20474;-90
2022/05/09 23:16:22;;;;;;;3.67;2.40;;;10.80;59.60;;;;;;5093459;28;20077;-89
2022/05/09 23:18:57;;;;;;;4.30;2.05;;;10.80;59.50;;;;;;5093283;28;20073;-89
2022/05/09 23:21:22;;;;;;;4.25;2.17;;;10.80;59.50;;;;;;5093234;28;20105;-89
2022/05/09 23:23:48;;;;;;;5.00;2.20;;;10.80;59.50;;;;;;5094701;28;20020;-89
2022/05/09 23:26:15;;;;;;;3.67;2.10;;;10.70;59.40;;;;;;5093413;28;20059;-89
2022/05/09 23:28:41;;;;;;;3.13;1.90;;;10.70;59.50;;;;;;5093376;28;20069;-90
2022/05/09 23:31:08;;;;;;;6.47;2.10;;;10.60;59.50;;;;;;5093451;28;20032;-90
2022/05/09 23:33:36;;;;;;;2.85;1.98;;;10.60;59.70;;;;;;5093410;28;20032;-90
2022/05/09 23:36:03;;;;;;;3.78;1.92;;;10.60;59.80;;;;;;5094473;28;20521;-90
2022/05/09 23:38:29;;;;;;;6.45;2.00;;;10.50;60.00;;;;;;5093402;28;20366;-91
2022/05/09 23:41:00;;;;;;;5.22;1.95;;;10.50;60.20;;;;;;5093180;28;20031;-91
2022/05/09 23:43:30;;;;;;;;;;;10.40;60.20;;;;;;5093871;28;20034;-91
2022/05/09 23:45:56;;;;;;;5.28;1.92;;;10.40;60.30;;;;;;5093245;28;20346;-91
2022/05/09 23:48:22;;;;;;;3.22;2.38;;;10.30;60.40;;;;;;5093096;28;20030;-90
2022/05/09 23:50:48;;;;;;;7.90;1.90;;;10.30;60.40;;;;;;5093187;28;20025;-91
2022/05/09 23:53:14;;;;;;;3.60;1.77;;;10.30;60.60;;;;;;5093309;28;20115;-91
2022/05/09 23:55:39;;;;;;;5.88;1.95;;;10.20;60.70;;;;;;5093280;28;20055;-91
2022/05/09 23:58:05;;;;;;;11.60;2.05;;;10.20;61.00;;;;;;5093206;28;20050;-91
